Orel 5 — EMFH — position and weather

sailwx.info

Track history (hours):
 
Tides and Currents Weather Stations Pressure Air Temp Water Temp Dewpoint Dewpoint Depression Visibility Wind Speed Wind Dir Waves Ship Positions

Orel 5

Last reported at 2016-Dec-05 06:33 UTC. Time now 2016-Dec-05 18:39 UTC.
Position N 37°45' E 024°21'.

Length 108 m; draft 3 m.

Type: Cargo ship. MMSI: 272059000.

Date/timePositionNaut miles runAvg speedWind from/ knotsBaromVisibWave heightAir tempDewpointWater temp
2016-Dec-05 06:33N 37°45' E 024°21'6 6.1
2016-Dec-05 05:32N 37°41' E 024°15'11 5.7
2016-Dec-05 03:31N 37°31' E 024°07'  
2016-Dec-01 03:08N 44°18' E 013°50'5 8.0
2016-Dec-01 02:27N 44°23' E 013°46'7 8.1
2016-Dec-01 01:33N 44°29' E 013°40'8 8.1
2016-Dec-01 00:33N 44°36' E 013°34'8 8.2
2016-Nov-30 23:33N 44°43' E 013°28'8 8.1
2016-Nov-30 22:33N 44°50' E 013°22'8 8.0
2016-Nov-30 21:33N 44°56' E 013°15'8 8.0
2016-Nov-30 20:33N 45°03' E 013°09'8 7.9
2016-Nov-30 19:33N 45°10' E 013°04'8 7.9
2016-Nov-30 18:33N 45°18' E 013°02'7 7.3
2016-Nov-30 17:33N 45°25' E 013°01'8 7.8
2016-Nov-30 16:33N 45°31' E 013°08'8 7.8
2016-Nov-30 15:34N 45°37' E 013°15'7 7.3
2016-Nov-30 14:33N 45°44' E 013°15'3 2.5
2016-Nov-30 13:11N 45°48' E 013°14'0 0.0
2016-Nov-30 12:23N 45°48' E 013°14'0 0.0
2016-Nov-30 11:32N 45°48' E 013°14'0 0.0
2016-Nov-30 10:17N 45°48' E 013°14'0 0.0
2016-Nov-30 09:17N 45°48' E 013°14'0 0.0
2016-Nov-30 08:29N 45°48' E 013°14'0 0.0
2016-Nov-30 07:26N 45°48' E 013°14'0 0.0
2016-Nov-30 06:32N 45°48' E 013°14'0 0.0
2016-Nov-30 05:32N 45°48' E 013°14'0 0.0
2016-Nov-30 04:32N 45°48' E 013°14'0 0.0
2016-Nov-30 03:32N 45°48' E 013°14'0 0.0
2016-Nov-30 02:29N 45°48' E 013°14'0 0.0
2016-Nov-30 01:23N 45°48' E 013°14'0 0.0
2016-Nov-30 00:23N 45°48' E 013°14'0 0.0
2016-Nov-29 23:29N 45°48' E 013°14'0 0.0
2016-Nov-29 22:29N 45°48' E 013°14'0 0.0
2016-Nov-29 21:29N 45°48' E 013°14'0 0.0
2016-Nov-29 20:17N 45°48' E 013°14'0 0.0
2016-Nov-29 19:32N 45°48' E 013°14'0 0.0
2016-Nov-29 18:29N 45°48' E 013°14'0 0.0
2016-Nov-29 17:29N 45°48' E 013°14'0 0.0
2016-Nov-29 16:32N 45°48' E 013°14'0 0.0
2016-Nov-29 15:23N 45°48' E 013°14'0 0.0
2016-Nov-29 14:26N 45°48' E 013°14'0 0.0
2016-Nov-29 13:29N 45°48' E 013°14'0 0.0
2016-Nov-29 12:32N 45°48' E 013°14'0 0.0
2016-Nov-29 11:32N 45°48' E 013°14'0 0.0
2016-Nov-29 10:32N 45°48' E 013°14'0 0.0
2016-Nov-29 09:29N 45°48' E 013°14'0 0.0
2016-Nov-29 08:23N 45°48' E 013°14'0 0.0
2016-Nov-29 07:29N 45°48' E 013°14'0 0.0
2016-Nov-29 06:29N 45°48' E 013°14'0 0.0
2016-Nov-29 05:26N 45°48' E 013°14'0 0.0
2016-Nov-29 04:32N 45°48' E 013°14'0 0.0
2016-Nov-29 03:29N 45°48' E 013°14'0 0.0
2016-Nov-29 02:32N 45°48' E 013°14'0 0.0
2016-Nov-29 01:29N 45°48' E 013°14'0 0.0
2016-Nov-29 00:29N 45°48' E 013°14'0 0.0
2016-Nov-28 23:29N 45°48' E 013°14'0 0.0
2016-Nov-28 22:32N 45°48' E 013°14'0 0.0
2016-Nov-28 21:29N 45°48' E 013°14'0 0.0
2016-Nov-28 20:32N 45°48' E 013°14'0 0.0
2016-Nov-28 19:32N 45°48' E 013°14'0 0.0
2016-Nov-28 18:23N 45°48' E 013°14'0 0.0
2016-Nov-28 17:29N 45°48' E 013°14'0 0.0
2016-Nov-28 16:32N 45°48' E 013°14'0 0.0
2016-Nov-28 15:26N 45°48' E 013°14'0 0.0
2016-Nov-28 14:32N 45°48' E 013°14'0 0.0
2016-Nov-28 13:29N 45°48' E 013°14'2 2.6
2016-Nov-28 12:33N 45°45' E 013°14'7 6.9
2016-Nov-28 11:33N 45°39' E 013°18'0 0.1
2016-Nov-28 10:32N 45°39' E 013°18'0 0.0
2016-Nov-28 09:32N 45°39' E 013°18'0 0.0
2016-Nov-28 08:32N 45°39' E 013°18'0 0.0
2016-Nov-28 07:32N 45°39' E 013°18'0 0.0
2016-Nov-28 06:32N 45°39' E 013°18'0 0.0
2016-Nov-28 05:32N 45°39' E 013°18'0 0.0
2016-Nov-28 04:32N 45°39' E 013°18'0 0.0
2016-Nov-28 03:26N 45°39' E 013°18'0 0.0
2016-Nov-28 02:32N 45°39' E 013°18'0 0.0
2016-Nov-28 01:33N 45°39' E 013°18'6 6.3
2016-Nov-28 00:33N 45°35' E 013°11'6 6.4
2016-Nov-27 23:33N 45°29' E 013°07'8 8.4
2016-Nov-27 22:33N 45°21' E 013°10'8 8.5
2016-Nov-27 21:33N 45°13' E 013°12'8 7.5
2016-Nov-27 20:33N 45°06' E 013°09'9 8.6
2016-Nov-27 19:33N 44°60' E 013°00'7 7.3
2016-Nov-27 18:33N 44°53' E 012°58'9 8.6
2016-Nov-27 17:33N 44°45' E 013°02'9 8.6
2016-Nov-27 16:33N 44°36' E 013°06'9 8.6
2016-Nov-27 15:34N 44°28' E 013°09'8 8.4
2016-Nov-27 14:33N 44°20' E 013°13'  
Track history (hours):
 
Tides and Currents Weather Stations Pressure Air Temp Water Temp Dewpoint Dewpoint Depression Visibility Wind Speed Wind Dir Waves Ship Positions

Orel 5

Last reported at 2016-Dec-05 06:33 UTC. Time now 2016-Dec-05 18:39 UTC.
Position N 37°45' E 024°21'.

Length 108 m; draft 3 m.

Type: Cargo ship. MMSI: 272059000.

Date/timePositionNaut miles runAvg speedWind from/ knotsBaromVisibWave heightAir tempDewpointWater temp
2016-Dec-05 06:33N 37°45' E 024°21'6 6.1
2016-Dec-05 05:32N 37°41' E 024°15'11 5.7
2016-Dec-05 03:31N 37°31' E 024°07'  
2016-Dec-01 03:08N 44°18' E 013°50'5 8.0
2016-Dec-01 02:27N 44°23' E 013°46'7 8.1
2016-Dec-01 01:33N 44°29' E 013°40'8 8.1
2016-Dec-01 00:33N 44°36' E 013°34'8 8.2
2016-Nov-30 23:33N 44°43' E 013°28'8 8.1
2016-Nov-30 22:33N 44°50' E 013°22'8 8.0
2016-Nov-30 21:33N 44°56' E 013°15'8 8.0
2016-Nov-30 20:33N 45°03' E 013°09'8 7.9
2016-Nov-30 19:33N 45°10' E 013°04'8 7.9
2016-Nov-30 18:33N 45°18' E 013°02'7 7.3
2016-Nov-30 17:33N 45°25' E 013°01'8 7.8
2016-Nov-30 16:33N 45°31' E 013°08'8 7.8
2016-Nov-30 15:34N 45°37' E 013°15'7 7.3
2016-Nov-30 14:33N 45°44' E 013°15'3 2.5
2016-Nov-30 13:11N 45°48' E 013°14'0 0.0
2016-Nov-30 12:23N 45°48' E 013°14'0 0.0
2016-Nov-30 11:32N 45°48' E 013°14'0 0.0
2016-Nov-30 10:17N 45°48' E 013°14'0 0.0
2016-Nov-30 09:17N 45°48' E 013°14'0 0.0
2016-Nov-30 08:29N 45°48' E 013°14'0 0.0
2016-Nov-30 07:26N 45°48' E 013°14'0 0.0
2016-Nov-30 06:32N 45°48' E 013°14'0 0.0
2016-Nov-30 05:32N 45°48' E 013°14'0 0.0
2016-Nov-30 04:32N 45°48' E 013°14'0 0.0
2016-Nov-30 03:32N 45°48' E 013°14'0 0.0
2016-Nov-30 02:29N 45°48' E 013°14'0 0.0
2016-Nov-30 01:23N 45°48' E 013°14'0 0.0
2016-Nov-30 00:23N 45°48' E 013°14'0 0.0
2016-Nov-29 23:29N 45°48' E 013°14'0 0.0
2016-Nov-29 22:29N 45°48' E 013°14'0 0.0
2016-Nov-29 21:29N 45°48' E 013°14'0 0.0
2016-Nov-29 20:17N 45°48' E 013°14'0 0.0
2016-Nov-29 19:32N 45°48' E 013°14'0 0.0
2016-Nov-29 18:29N 45°48' E 013°14'0 0.0
2016-Nov-29 17:29N 45°48' E 013°14'0 0.0
2016-Nov-29 16:32N 45°48' E 013°14'0 0.0
2016-Nov-29 15:23N 45°48' E 013°14'0 0.0
2016-Nov-29 14:26N 45°48' E 013°14'0 0.0
2016-Nov-29 13:29N 45°48' E 013°14'0 0.0
2016-Nov-29 12:32N 45°48' E 013°14'0 0.0
2016-Nov-29 11:32N 45°48' E 013°14'0 0.0
2016-Nov-29 10:32N 45°48' E 013°14'0 0.0
2016-Nov-29 09:29N 45°48' E 013°14'0 0.0
2016-Nov-29 08:23N 45°48' E 013°14'0 0.0
2016-Nov-29 07:29N 45°48' E 013°14'0 0.0
2016-Nov-29 06:29N 45°48' E 013°14'0 0.0
2016-Nov-29 05:26N 45°48' E 013°14'0 0.0
2016-Nov-29 04:32N 45°48' E 013°14'0 0.0
2016-Nov-29 03:29N 45°48' E 013°14'0 0.0
2016-Nov-29 02:32N 45°48' E 013°14'0 0.0
2016-Nov-29 01:29N 45°48' E 013°14'0 0.0
2016-Nov-29 00:29N 45°48' E 013°14'0 0.0
2016-Nov-28 23:29N 45°48' E 013°14'0 0.0
2016-Nov-28 22:32N 45°48' E 013°14'0 0.0
2016-Nov-28 21:29N 45°48' E 013°14'0 0.0
2016-Nov-28 20:32N 45°48' E 013°14'0 0.0
2016-Nov-28 19:32N 45°48' E 013°14'0 0.0
2016-Nov-28 18:23N 45°48' E 013°14'0 0.0
2016-Nov-28 17:29N 45°48' E 013°14'0 0.0
2016-Nov-28 16:32N 45°48' E 013°14'0 0.0
2016-Nov-28 15:26N 45°48' E 013°14'0 0.0
2016-Nov-28 14:32N 45°48' E 013°14'0 0.0
2016-Nov-28 13:29N 45°48' E 013°14'2 2.6
2016-Nov-28 12:33N 45°45' E 013°14'7 6.9
2016-Nov-28 11:33N 45°39' E 013°18'0 0.1
2016-Nov-28 10:32N 45°39' E 013°18'0 0.0
2016-Nov-28 09:32N 45°39' E 013°18'0 0.0
2016-Nov-28 08:32N 45°39' E 013°18'0 0.0
2016-Nov-28 07:32N 45°39' E 013°18'0 0.0
2016-Nov-28 06:32N 45°39' E 013°18'0 0.0
2016-Nov-28 05:32N 45°39' E 013°18'0 0.0
2016-Nov-28 04:32N 45°39' E 013°18'0 0.0
2016-Nov-28 03:26N 45°39' E 013°18'0 0.0
2016-Nov-28 02:32N 45°39' E 013°18'0 0.0
2016-Nov-28 01:33N 45°39' E 013°18'6 6.3
2016-Nov-28 00:33N 45°35' E 013°11'6 6.4
2016-Nov-27 23:33N 45°29' E 013°07'8 8.4
2016-Nov-27 22:33N 45°21' E 013°10'8 8.5
2016-Nov-27 21:33N 45°13' E 013°12'8 7.5
2016-Nov-27 20:33N 45°06' E 013°09'9 8.6
2016-Nov-27 19:33N 44°60' E 013°00'7 7.3
2016-Nov-27 18:33N 44°53' E 012°58'9 8.6
2016-Nov-27 17:33N 44°45' E 013°02'9 8.6
2016-Nov-27 16:33N 44°36' E 013°06'9 8.6
2016-Nov-27 15:34N 44°28' E 013°09'8 8.4
2016-Nov-27 14:33N 44°20' E 013°13'  

Dump ship's entire track history